sensor_id;sensor_type;location;lat;lon;timestamp;P1;durP1;ratioP1;P2;durP2;ratioP2
71753;SDS011;59593;51.716;7.016;2023-10-09T00:01:50;12.88;;;7.93;;
71753;SDS011;59593;51.716;7.016;2023-10-09T00:04:16;11.30;;;7.82;;
71753;SDS011;59593;51.716;7.016;2023-10-09T00:06:42;14.63;;;8.73;;
71753;SDS011;59593;51.716;7.016;2023-10-09T00:09:09;12.00;;;7.97;;
71753;SDS011;59593;51.716;7.016;2023-10-09T00:11:50;14.43;;;8.23;;
71753;SDS011;59593;51.716;7.016;2023-10-09T00:14:29;14.55;;;8.07;;
71753;SDS011;59593;51.716;7.016;2023-10-09T00:16:56;12.00;;;7.63;;
71753;SDS011;59593;51.716;7.016;2023-10-09T00:19:42;12.20;;;8.50;;
71753;SDS011;59593;51.716;7.016;2023-10-09T00:22:15;13.45;;;7.63;;
71753;SDS011;59593;51.716;7.016;2023-10-09T00:24:49;14.77;;;8.43;;
71753;SDS011;59593;51.716;7.016;2023-10-09T00:27:35;12.25;;;7.65;;
71753;SDS011;59593;51.716;7.016;2023-10-09T00:30:11;13.13;;;7.97;;
71753;SDS011;59593;51.716;7.016;2023-10-09T00:32:44;9.80;;;7.57;;
71753;SDS011;59593;51.716;7.016;2023-10-09T00:35:24;11.48;;;8.02;;
71753;SDS011;59593;51.716;7.016;2023-10-09T00:38:03;12.45;;;7.78;;
71753;SDS011;59593;51.716;7.016;2023-10-09T00:40:51;11.00;;;7.75;;
71753;SDS011;59593;51.716;7.016;2023-10-09T00:43:32;12.13;;;7.90;;
71753;SDS011;59593;51.716;7.016;2023-10-09T00:46:00;14.98;;;9.32;;
71753;SDS011;59593;51.716;7.016;2023-10-09T00:48:29;14.95;;;10.05;;
71753;SDS011;59593;51.716;7.016;2023-10-09T00:50:58;16.35;;;10.02;;
71753;SDS011;59593;51.716;7.016;2023-10-09T00:56:47;21.92;;;12.73;;
71753;SDS011;59593;51.716;7.016;2023-10-09T00:59:22;21.17;;;12.77;;
71753;SDS011;59593;51.716;7.016;2023-10-09T01:01:50;19.52;;;11.90;;
71753;SDS011;59593;51.716;7.016;2023-10-09T01:04:24;22.75;;;12.80;;
71753;SDS011;59593;51.716;7.016;2023-10-09T01:07:07;22.02;;;12.77;;
71753;SDS011;59593;51.716;7.016;2023-10-09T01:09:51;22.83;;;13.68;;
71753;SDS011;59593;51.716;7.016;2023-10-09T01:12:19;24.75;;;13.88;;
71753;SDS011;59593;51.716;7.016;2023-10-09T01:14:46;25.25;;;14.30;;
71753;SDS011;59593;51.716;7.016;2023-10-09T01:17:18;27.98;;;15.48;;
71753;SDS011;59593;51.716;7.016;2023-10-09T01:20:04;24.45;;;13.98;;
71753;SDS011;59593;51.716;7.016;2023-10-09T01:22:40;27.52;;;14.25;;
71753;SDS011;59593;51.716;7.016;2023-10-09T01:25:08;24.95;;;14.13;;
71753;SDS011;59593;51.716;7.016;2023-10-09T01:27:35;24.17;;;14.45;;
71753;SDS011;59593;51.716;7.016;2023-10-09T01:30:05;21.00;;;13.73;;
71753;SDS011;59593;51.716;7.016;2023-10-09T01:32:31;24.27;;;14.90;;
71753;SDS011;59593;51.716;7.016;2023-10-09T01:34:59;23.85;;;14.07;;
71753;SDS011;59593;51.716;7.016;2023-10-09T01:37:25;24.02;;;14.18;;
71753;SDS011;59593;51.716;7.016;2023-10-09T01:46:16;21.13;;;14.20;;
71753;SDS011;59593;51.716;7.016;2023-10-09T01:48:45;28.73;;;16.60;;
71753;SDS011;59593;51.716;7.016;2023-10-09T01:51:15;23.15;;;14.70;;
71753;SDS011;59593;51.716;7.016;2023-10-09T01:53:44;23.80;;;15.55;;
71753;SDS011;59593;51.716;7.016;2023-10-09T01:56:12;22.58;;;14.57;;
71753;SDS011;59593;51.716;7.016;2023-10-09T01:58:42;28.35;;;16.33;;
71753;SDS011;59593;51.716;7.016;2023-10-09T02:01:11;23.27;;;14.57;;
71753;SDS011;59593;51.716;7.016;2023-10-09T02:03:37;24.33;;;15.00;;
71753;SDS011;59593;51.716;7.016;2023-10-09T02:06:06;24.80;;;14.80;;
71753;SDS011;59593;51.716;7.016;2023-10-09T02:08:50;25.30;;;16.00;;
71753;SDS011;59593;51.716;7.016;2023-10-09T02:11:16;27.50;;;16.40;;
71753;SDS011;59593;51.716;7.016;2023-10-09T02:14:02;26.13;;;16.30;;
71753;SDS011;59593;51.716;7.016;2023-10-09T02:16:30;31.05;;;18.27;;
71753;SDS011;59593;51.716;7.016;2023-10-09T02:19:06;26.95;;;16.83;;
71753;SDS011;59593;51.716;7.016;2023-10-09T02:21:55;28.13;;;17.52;;
71753;SDS011;59593;51.716;7.016;2023-10-09T02:24:26;25.60;;;16.23;;
71753;SDS011;59593;51.716;7.016;2023-10-09T02:26:53;30.23;;;16.67;;
71753;SDS011;59593;51.716;7.016;2023-10-09T02:29:19;25.85;;;17.10;;
71753;SDS011;59593;51.716;7.016;2023-10-09T02:31:48;28.17;;;17.58;;
71753;SDS011;59593;51.716;7.016;2023-10-09T02:34:19;28.92;;;16.48;;
71753;SDS011;59593;51.716;7.016;2023-10-09T02:36:51;24.27;;;15.07;;
71753;SDS011;59593;51.716;7.016;2023-10-09T02:39:36;25.83;;;17.50;;
71753;SDS011;59593;51.716;7.016;2023-10-09T02:42:08;30.05;;;17.80;;
71753;SDS011;59593;51.716;7.016;2023-10-09T02:44:37;28.50;;;17.90;;
71753;SDS011;59593;51.716;7.016;2023-10-09T02:47:14;29.92;;;17.63;;
71753;SDS011;59593;51.716;7.016;2023-10-09T02:49:49;27.35;;;17.83;;
71753;SDS011;59593;51.716;7.016;2023-10-09T02:52:16;30.38;;;17.60;;
71753;SDS011;59593;51.716;7.016;2023-10-09T02:54:50;28.42;;;18.40;;
71753;SDS011;59593;51.716;7.016;2023-10-09T02:57:24;30.02;;;18.70;;
71753;SDS011;59593;51.716;7.016;2023-10-09T03:00:01;28.67;;;18.10;;
71753;SDS011;59593;51.716;7.016;2023-10-09T03:02:29;28.73;;;19.00;;
71753;SDS011;59593;51.716;7.016;2023-10-09T03:04:56;31.52;;;18.85;;
71753;SDS011;59593;51.716;7.016;2023-10-09T03:07:23;30.60;;;19.13;;
71753;SDS011;59593;51.716;7.016;2023-10-09T03:09:49;27.48;;;18.70;;
71753;SDS011;59593;51.716;7.016;2023-10-09T03:12:14;28.13;;;18.75;;
71753;SDS011;59593;51.716;7.016;2023-10-09T03:14:43;30.80;;;18.27;;
71753;SDS011;59593;51.716;7.016;2023-10-09T03:17:09;29.15;;;18.17;;
71753;SDS011;59593;51.716;7.016;2023-10-09T03:19:38;25.10;;;17.70;;
71753;SDS011;59593;51.716;7.016;2023-10-09T03:22:04;29.50;;;18.77;;
71753;SDS011;59593;51.716;7.016;2023-10-09T03:24:35;28.05;;;18.20;;
71753;SDS011;59593;51.716;7.016;2023-10-09T03:27:20;25.00;;;17.42;;
71753;SDS011;59593;51.716;7.016;2023-10-09T03:29:46;26.27;;;17.83;;
71753;SDS011;59593;51.716;7.016;2023-10-09T03:32:14;26.83;;;17.60;;
71753;SDS011;59593;51.716;7.016;2023-10-09T03:34:40;28.08;;;17.20;;
71753;SDS011;59593;51.716;7.016;2023-10-09T03:37:07;25.90;;;17.58;;
71753;SDS011;59593;51.716;7.016;2023-10-09T03:39:47;28.08;;;17.67;;
71753;SDS011;59593;51.716;7.016;2023-10-09T03:42:13;23.95;;;17.15;;
71753;SDS011;59593;51.716;7.016;2023-10-09T03:44:46;30.45;;;18.05;;
71753;SDS011;59593;51.716;7.016;2023-10-09T03:47:17;32.95;;;17.25;;
71753;SDS011;59593;51.716;7.016;2023-10-09T03:49:47;27.77;;;17.10;;
71753;SDS011;59593;51.716;7.016;2023-10-09T03:52:18;25.73;;;16.95;;
71753;SDS011;59593;51.716;7.016;2023-10-09T03:54:44;30.08;;;17.13;;
71753;SDS011;59593;51.716;7.016;2023-10-09T03:57:11;24.60;;;16.13;;
71753;SDS011;59593;51.716;7.016;2023-10-09T03:59:45;23.38;;;16.65;;
71753;SDS011;59593;51.716;7.016;2023-10-09T04:02:12;26.02;;;16.83;;
71753;SDS011;59593;51.716;7.016;2023-10-09T04:04:38;24.70;;;16.17;;
71753;SDS011;59593;51.716;7.016;2023-10-09T04:07:04;25.45;;;16.20;;
71753;SDS011;59593;51.716;7.016;2023-10-09T04:09:31;25.55;;;16.50;;
71753;SDS011;59593;51.716;7.016;2023-10-09T04:12:05;22.65;;;15.70;;
71753;SDS011;59593;51.716;7.016;2023-10-09T04:14:50;28.30;;;16.05;;
71753;SDS011;59593;51.716;7.016;2023-10-09T04:17:20;24.42;;;15.82;;
71753;SDS011;59593;51.716;7.016;2023-10-09T04:19:55;22.25;;;15.20;;
71753;SDS011;59593;51.716;7.016;2023-10-09T04:22:59;23.70;;;15.73;;
71753;SDS011;59593;51.716;7.016;2023-10-09T04:25:29;20.90;;;15.48;;
71753;SDS011;59593;51.716;7.016;2023-10-09T04:28:08;23.70;;;16.23;;
71753;SDS011;59593;51.716;7.016;2023-10-09T04:30:37;23.95;;;14.90;;
71753;SDS011;59593;51.716;7.016;2023-10-09T04:33:08;21.88;;;14.85;;
71753;SDS011;59593;51.716;7.016;2023-10-09T04:36:05;22.00;;;14.50;;
71753;SDS011;59593;51.716;7.016;2023-10-09T04:38:43;21.85;;;15.07;;
71753;SDS011;59593;51.716;7.016;2023-10-09T04:41:21;21.85;;;14.68;;
71753;SDS011;59593;51.716;7.016;2023-10-09T04:43:55;23.90;;;14.93;;
71753;SDS011;59593;51.716;7.016;2023-10-09T04:46:39;22.20;;;14.85;;
71753;SDS011;59593;51.716;7.016;2023-10-09T04:49:35;21.17;;;14.10;;
71753;SDS011;59593;51.716;7.016;2023-10-09T04:52:22;20.88;;;14.55;;
71753;SDS011;59593;51.716;7.016;2023-10-09T04:54:54;18.38;;;13.63;;
71753;SDS011;59593;51.716;7.016;2023-10-09T04:57:31;22.45;;;14.57;;
71753;SDS011;59593;51.716;7.016;2023-10-09T05:00:06;21.88;;;15.10;;
71753;SDS011;59593;51.716;7.016;2023-10-09T05:02:47;25.75;;;13.60;;
71753;SDS011;59593;51.716;7.016;2023-10-09T05:05:20;22.60;;;14.32;;
71753;SDS011;59593;51.716;7.016;2023-10-09T05:08:07;27.00;;;14.60;;
71753;SDS011;59593;51.716;7.016;2023-10-09T05:10:50;22.50;;;14.20;;
71753;SDS011;59593;51.716;7.016;2023-10-09T05:13:23;19.13;;;13.75;;
71753;SDS011;59593;51.716;7.016;2023-10-09T05:16:07;23.83;;;13.95;;
71753;SDS011;59593;51.716;7.016;2023-10-09T05:18:54;23.27;;;14.50;;
71753;SDS011;59593;51.716;7.016;2023-10-09T05:21:24;19.67;;;13.50;;
71753;SDS011;59593;51.716;7.016;2023-10-09T05:23:56;20.65;;;13.73;;
71753;SDS011;59593;51.716;7.016;2023-10-09T05:26:37;24.52;;;12.77;;
71753;SDS011;59593;51.716;7.016;2023-10-09T05:29:26;22.48;;;13.55;;
71753;SDS011;59593;51.716;7.016;2023-10-09T05:31:58;22.02;;;12.73;;
71753;SDS011;59593;51.716;7.016;2023-10-09T05:34:31;22.98;;;14.70;;
71753;SDS011;59593;51.716;7.016;2023-10-09T05:37:02;18.80;;;12.80;;
71753;SDS011;59593;51.716;7.016;2023-10-09T05:39:48;21.38;;;13.68;;
71753;SDS011;59593;51.716;7.016;2023-10-09T05:42:44;20.65;;;13.90;;
71753;SDS011;59593;51.716;7.016;2023-10-09T05:47:43;20.40;;;13.35;;
71753;SDS011;59593;51.716;7.016;2023-10-09T05:50:19;23.08;;;14.30;;
71753;SDS011;59593;51.716;7.016;2023-10-09T05:52:48;18.45;;;11.52;;
71753;SDS011;59593;51.716;7.016;2023-10-09T05:55:17;18.42;;;12.85;;
71753;SDS011;59593;51.716;7.016;2023-10-09T05:58:06;18.35;;;10.82;;
71753;SDS011;59593;51.716;7.016;2023-10-09T06:00:34;19.88;;;12.27;;
71753;SDS011;59593;51.716;7.016;2023-10-09T06:03:18;17.92;;;13.23;;
71753;SDS011;59593;51.716;7.016;2023-10-09T06:05:51;17.27;;;12.48;;
71753;SDS011;59593;51.716;7.016;2023-10-09T06:08:21;17.25;;;12.07;;
71753;SDS011;59593;51.716;7.016;2023-10-09T06:11:13;24.38;;;12.00;;
71753;SDS011;59593;51.716;7.016;2023-10-09T06:13:58;17.38;;;12.18;;
71753;SDS011;59593;51.716;7.016;2023-10-09T06:16:34;22.35;;;13.55;;
71753;SDS011;59593;51.716;7.016;2023-10-09T06:19:12;17.45;;;12.00;;
71753;SDS011;59593;51.716;7.016;2023-10-09T06:21:45;18.63;;;12.25;;
71753;SDS011;59593;51.716;7.016;2023-10-09T06:24:17;20.27;;;12.73;;
71753;SDS011;59593;51.716;7.016;2023-10-09T06:26:49;21.35;;;13.23;;
71753;SDS011;59593;51.716;7.016;2023-10-09T06:29:24;18.75;;;12.32;;
71753;SDS011;59593;51.716;7.016;2023-10-09T06:32:10;17.27;;;12.52;;
71753;SDS011;59593;51.716;7.016;2023-10-09T06:34:59;16.15;;;11.88;;
71753;SDS011;59593;51.716;7.016;2023-10-09T06:37:42;19.67;;;13.45;;
71753;SDS011;59593;51.716;7.016;2023-10-09T06:40:26;19.67;;;12.95;;
71753;SDS011;59593;51.716;7.016;2023-10-09T06:43:01;21.23;;;13.35;;
71753;SDS011;59593;51.716;7.016;2023-10-09T06:45:54;18.92;;;13.38;;
71753;SDS011;59593;51.716;7.016;2023-10-09T06:48:41;21.60;;;13.75;;
71753;SDS011;59593;51.716;7.016;2023-10-09T06:51:21;21.55;;;12.73;;
71753;SDS011;59593;51.716;7.016;2023-10-09T06:53:50;20.30;;;13.52;;
71753;SDS011;59593;51.716;7.016;2023-10-09T06:56:19;20.08;;;11.68;;
71753;SDS011;59593;51.716;7.016;2023-10-09T06:58:58;18.40;;;12.98;;
71753;SDS011;59593;51.716;7.016;2023-10-09T07:01:28;20.10;;;13.52;;
71753;SDS011;59593;51.716;7.016;2023-10-09T07:04:03;17.58;;;12.13;;
71753;SDS011;59593;51.716;7.016;2023-10-09T07:10:11;20.77;;;13.07;;
71753;SDS011;59593;51.716;7.016;2023-10-09T07:12:57;19.23;;;13.73;;
71753;SDS011;59593;51.716;7.016;2023-10-09T07:15:23;18.30;;;13.45;;
71753;SDS011;59593;51.716;7.016;2023-10-09T07:18:08;19.17;;;12.93;;
71753;SDS011;59593;51.716;7.016;2023-10-09T07:21:07;21.00;;;14.13;;
71753;SDS011;59593;51.716;7.016;2023-10-09T07:23:36;15.63;;;12.13;;
71753;SDS011;59593;51.716;7.016;2023-10-09T07:26:13;18.25;;;12.23;;
71753;SDS011;59593;51.716;7.016;2023-10-09T07:28:43;19.63;;;11.45;;
71753;SDS011;59593;51.716;7.016;2023-10-09T07:31:19;21.67;;;14.15;;
71753;SDS011;59593;51.716;7.016;2023-10-09T07:33:52;19.65;;;13.93;;
71753;SDS011;59593;51.716;7.016;2023-10-09T07:36:21;16.88;;;11.70;;
71753;SDS011;59593;51.716;7.016;2023-10-09T07:38:59;18.88;;;13.55;;
71753;SDS011;59593;51.716;7.016;2023-10-09T07:41:29;19.80;;;14.07;;
71753;SDS011;59593;51.716;7.016;2023-10-09T07:43:58;20.52;;;14.05;;
71753;SDS011;59593;51.716;7.016;2023-10-09T07:46:45;21.80;;;13.93;;
71753;SDS011;59593;51.716;7.016;2023-10-09T07:49:17;18.17;;;12.70;;
71753;SDS011;59593;51.716;7.016;2023-10-09T07:51:54;22.80;;;13.63;;
71753;SDS011;59593;51.716;7.016;2023-10-09T07:54:20;23.63;;;13.32;;
71753;SDS011;59593;51.716;7.016;2023-10-09T07:56:59;22.70;;;14.23;;
71753;SDS011;59593;51.716;7.016;2023-10-09T07:59:34;20.83;;;14.40;;
71753;SDS011;59593;51.716;7.016;2023-10-09T08:02:06;19.88;;;13.98;;
71753;SDS011;59593;51.716;7.016;2023-10-09T08:04:39;22.67;;;14.98;;
71753;SDS011;59593;51.716;7.016;2023-10-09T08:07:14;23.00;;;15.02;;
71753;SDS011;59593;51.716;7.016;2023-10-09T08:09:59;21.40;;;14.73;;
71753;SDS011;59593;51.716;7.016;2023-10-09T08:12:38;22.17;;;14.43;;
71753;SDS011;59593;51.716;7.016;2023-10-09T08:15:22;22.67;;;15.43;;
71753;SDS011;59593;51.716;7.016;2023-10-09T08:17:55;22.02;;;14.73;;
71753;SDS011;59593;51.716;7.016;2023-10-09T08:20:24;21.40;;;15.50;;
71753;SDS011;59593;51.716;7.016;2023-10-09T08:22:51;19.52;;;14.30;;
71753;SDS011;59593;51.716;7.016;2023-10-09T08:25:21;20.80;;;15.07;;
71753;SDS011;59593;51.716;7.016;2023-10-09T08:28:19;20.60;;;14.20;;
71753;SDS011;59593;51.716;7.016;2023-10-09T08:31:07;20.55;;;14.70;;
71753;SDS011;59593;51.716;7.016;2023-10-09T08:34:10;22.88;;;15.23;;
71753;SDS011;59593;51.716;7.016;2023-10-09T08:36:48;21.00;;;15.35;;
71753;SDS011;59593;51.716;7.016;2023-10-09T08:39:17;22.95;;;14.90;;
71753;SDS011;59593;51.716;7.016;2023-10-09T08:41:50;20.30;;;14.27;;
71753;SDS011;59593;51.716;7.016;2023-10-09T08:44:17;20.52;;;14.32;;
71753;SDS011;59593;51.716;7.016;2023-10-09T08:46:47;19.20;;;13.40;;
71753;SDS011;59593;51.716;7.016;2023-10-09T08:49:15;21.90;;;14.73;;
71753;SDS011;59593;51.716;7.016;2023-10-09T08:51:43;23.90;;;13.93;;
71753;SDS011;59593;51.716;7.016;2023-10-09T08:54:11;19.27;;;13.07;;
71753;SDS011;59593;51.716;7.016;2023-10-09T08:56:39;18.52;;;12.90;;
71753;SDS011;59593;51.716;7.016;2023-10-09T08:59:14;19.15;;;12.75;;
71753;SDS011;59593;51.716;7.016;2023-10-09T09:01:43;18.77;;;14.13;;
71753;SDS011;59593;51.716;7.016;2023-10-09T09:04:33;25.05;;;14.82;;
71753;SDS011;59593;51.716;7.016;2023-10-09T09:07:04;18.55;;;13.93;;
71753;SDS011;59593;51.716;7.016;2023-10-09T09:09:33;21.08;;;13.95;;
71753;SDS011;59593;51.716;7.016;2023-10-09T09:11:59;20.65;;;13.10;;
71753;SDS011;59593;51.716;7.016;2023-10-09T09:14:37;26.02;;;14.95;;
71753;SDS011;59593;51.716;7.016;2023-10-09T09:17:07;22.85;;;15.10;;
71753;SDS011;59593;51.716;7.016;2023-10-09T09:19:36;22.73;;;15.02;;
71753;SDS011;59593;51.716;7.016;2023-10-09T09:22:03;20.15;;;15.70;;
71753;SDS011;59593;51.716;7.016;2023-10-09T09:24:39;21.17;;;14.40;;
71753;SDS011;59593;51.716;7.016;2023-10-09T09:27:25;20.38;;;14.77;;
71753;SDS011;59593;51.716;7.016;2023-10-09T09:30:24;18.60;;;14.05;;
71753;SDS011;59593;51.716;7.016;2023-10-09T09:32:56;25.02;;;15.65;;
71753;SDS011;59593;51.716;7.016;2023-10-09T09:35:54;26.02;;;14.98;;
71753;SDS011;59593;51.716;7.016;2023-10-09T09:38:33;25.23;;;16.02;;
71753;SDS011;59593;51.716;7.016;2023-10-09T09:44:37;21.77;;;15.25;;
71753;SDS011;59593;51.716;7.016;2023-10-09T09:47:20;21.20;;;14.93;;
71753;SDS011;59593;51.716;7.016;2023-10-09T09:49:51;19.27;;;15.05;;
71753;SDS011;59593;51.716;7.016;2023-10-09T09:52:29;23.40;;;15.55;;
71753;SDS011;59593;51.716;7.016;2023-10-09T09:55:03;22.10;;;15.35;;
71753;SDS011;59593;51.716;7.016;2023-10-09T09:57:43;21.73;;;14.77;;
71753;SDS011;59593;51.716;7.016;2023-10-09T10:00:10;21.38;;;14.75;;
71753;SDS011;59593;51.716;7.016;2023-10-09T10:03:01;24.83;;;15.43;;
71753;SDS011;59593;51.716;7.016;2023-10-09T10:05:32;21.42;;;14.40;;
71753;SDS011;59593;51.716;7.016;2023-10-09T10:07:59;23.20;;;15.80;;
71753;SDS011;59593;51.716;7.016;2023-10-09T10:10:43;20.83;;;15.30;;
71753;SDS011;59593;51.716;7.016;2023-10-09T10:13:17;18.65;;;13.70;;
71753;SDS011;59593;51.716;7.016;2023-10-09T10:16:15;23.52;;;16.05;;
71753;SDS011;59593;51.716;7.016;2023-10-09T10:21:28;24.60;;;15.85;;
71753;SDS011;59593;51.716;7.016;2023-10-09T10:23:56;22.90;;;15.50;;
71753;SDS011;59593;51.716;7.016;2023-10-09T10:26:30;21.98;;;15.43;;
71753;SDS011;59593;51.716;7.016;2023-10-09T10:31:59;24.70;;;15.88;;
71753;SDS011;59593;51.716;7.016;2023-10-09T10:37:32;25.00;;;15.10;;
71753;SDS011;59593;51.716;7.016;2023-10-09T10:40:25;24.95;;;16.10;;
71753;SDS011;59593;51.716;7.016;2023-10-09T10:43:18;24.10;;;15.85;;
71753;SDS011;59593;51.716;7.016;2023-10-09T10:46:00;23.73;;;15.90;;
71753;SDS011;59593;51.716;7.016;2023-10-09T10:48:49;24.23;;;16.63;;
71753;SDS011;59593;51.716;7.016;2023-10-09T10:51:38;25.63;;;15.15;;
71753;SDS011;59593;51.716;7.016;2023-10-09T10:54:04;21.15;;;15.80;;
71753;SDS011;59593;51.716;7.016;2023-10-09T10:57:06;25.98;;;15.43;;
71753;SDS011;59593;51.716;7.016;2023-10-09T11:00:19;28.67;;;16.00;;
71753;SDS011;59593;51.716;7.016;2023-10-09T11:03:03;30.98;;;16.02;;
71753;SDS011;59593;51.716;7.016;2023-10-09T11:05:41;22.73;;;15.48;;
71753;SDS011;59593;51.716;7.016;2023-10-09T11:08:10;23.35;;;15.57;;
71753;SDS011;59593;51.716;7.016;2023-10-09T11:10:37;27.02;;;16.10;;
71753;SDS011;59593;51.716;7.016;2023-10-09T11:13:24;23.85;;;14.85;;
71753;SDS011;59593;51.716;7.016;2023-10-09T11:15:55;24.30;;;15.20;;
71753;SDS011;59593;51.716;7.016;2023-10-09T11:18:39;23.00;;;15.57;;
71753;SDS011;59593;51.716;7.016;2023-10-09T11:21:12;23.52;;;15.85;;
71753;SDS011;59593;51.716;7.016;2023-10-09T11:23:39;25.15;;;15.98;;
71753;SDS011;59593;51.716;7.016;2023-10-09T11:26:15;26.25;;;15.05;;
71753;SDS011;59593;51.716;7.016;2023-10-09T11:29:05;22.50;;;14.73;;
71753;SDS011;59593;51.716;7.016;2023-10-09T11:31:38;22.90;;;15.00;;
71753;SDS011;59593;51.716;7.016;2023-10-09T11:34:17;25.05;;;15.13;;
71753;SDS011;59593;51.716;7.016;2023-10-09T11:36:53;20.63;;;14.88;;
71753;SDS011;59593;51.716;7.016;2023-10-09T11:39:28;27.30;;;14.93;;
71753;SDS011;59593;51.716;7.016;2023-10-09T11:42:05;24.70;;;15.32;;
71753;SDS011;59593;51.716;7.016;2023-10-09T11:44:37;20.45;;;14.95;;
71753;SDS011;59593;51.716;7.016;2023-10-09T11:47:10;23.90;;;15.65;;
71753;SDS011;59593;51.716;7.016;2023-10-09T11:52:58;24.52;;;15.77;;
71753;SDS011;59593;51.716;7.016;2023-10-09T11:55:51;23.80;;;15.70;;
71753;SDS011;59593;51.716;7.016;2023-10-09T11:58:20;23.40;;;15.68;;
71753;SDS011;59593;51.716;7.016;2023-10-09T12:00:50;23.92;;;15.77;;
71753;SDS011;59593;51.716;7.016;2023-10-09T12:03:16;24.85;;;15.68;;
71753;SDS011;59593;51.716;7.016;2023-10-09T12:05:47;20.50;;;13.93;;
71753;SDS011;59593;51.716;7.016;2023-10-09T12:08:13;25.10;;;15.90;;
71753;SDS011;59593;51.716;7.016;2023-10-09T12:10:41;23.13;;;15.40;;
71753;SDS011;59593;51.716;7.016;2023-10-09T12:13:07;22.67;;;15.05;;
71753;SDS011;59593;51.716;7.016;2023-10-09T12:15:33;25.50;;;15.85;;
71753;SDS011;59593;51.716;7.016;2023-10-09T12:18:23;23.25;;;14.85;;
71753;SDS011;59593;51.716;7.016;2023-10-09T12:20:49;21.70;;;14.77;;
71753;SDS011;59593;51.716;7.016;2023-10-09T12:23:15;20.63;;;15.10;;
71753;SDS011;59593;51.716;7.016;2023-10-09T12:25:42;20.98;;;15.13;;
71753;SDS011;59593;51.716;7.016;2023-10-09T12:28:10;22.95;;;14.68;;
71753;SDS011;59593;51.716;7.016;2023-10-09T12:30:38;24.65;;;16.55;;
71753;SDS011;59593;51.716;7.016;2023-10-09T12:33:04;28.25;;;16.00;;
71753;SDS011;59593;51.716;7.016;2023-10-09T12:35:35;24.23;;;15.98;;
71753;SDS011;59593;51.716;7.016;2023-10-09T12:38:02;24.17;;;15.90;;
71753;SDS011;59593;51.716;7.016;2023-10-09T12:40:33;22.85;;;16.05;;
71753;SDS011;59593;51.716;7.016;2023-10-09T12:42:59;29.75;;;16.05;;
71753;SDS011;59593;51.716;7.016;2023-10-09T12:45:25;23.52;;;14.93;;
71753;SDS011;59593;51.716;7.016;2023-10-09T12:47:57;26.13;;;15.85;;
71753;SDS011;59593;51.716;7.016;2023-10-09T12:50:27;27.10;;;16.02;;
71753;SDS011;59593;51.716;7.016;2023-10-09T12:52:58;21.52;;;15.32;;
71753;SDS011;59593;51.716;7.016;2023-10-09T12:55:28;27.25;;;15.95;;
71753;SDS011;59593;51.716;7.016;2023-10-09T12:57:59;26.70;;;16.40;;
71753;SDS011;59593;51.716;7.016;2023-10-09T13:00:29;24.58;;;15.05;;
71753;SDS011;59593;51.716;7.016;2023-10-09T13:02:57;22.25;;;15.32;;
71753;SDS011;59593;51.716;7.016;2023-10-09T13:05:26;26.67;;;16.13;;
71753;SDS011;59593;51.716;7.016;2023-10-09T13:07:52;25.05;;;16.50;;
71753;SDS011;59593;51.716;7.016;2023-10-09T13:10:20;24.25;;;15.63;;
71753;SDS011;59593;51.716;7.016;2023-10-09T13:15:37;26.15;;;15.10;;
71753;SDS011;59593;51.716;7.016;2023-10-09T13:18:07;22.25;;;15.38;;
71753;SDS011;59593;51.716;7.016;2023-10-09T13:20:33;25.08;;;15.50;;
71753;SDS011;59593;51.716;7.016;2023-10-09T13:23:01;26.17;;;16.08;;
71753;SDS011;59593;51.716;7.016;2023-10-09T13:31:58;22.42;;;15.13;;
71753;SDS011;59593;51.716;7.016;2023-10-09T13:34:38;26.75;;;15.93;;
71753;SDS011;59593;51.716;7.016;2023-10-09T13:37:09;23.73;;;15.98;;
71753;SDS011;59593;51.716;7.016;2023-10-09T13:39:39;27.83;;;15.63;;
71753;SDS011;59593;51.716;7.016;2023-10-09T13:42:17;26.50;;;15.13;;
71753;SDS011;59593;51.716;7.016;2023-10-09T13:44:42;26.67;;;15.63;;
71753;SDS011;59593;51.716;7.016;2023-10-09T13:47:08;24.25;;;15.63;;
71753;SDS011;59593;51.716;7.016;2023-10-09T13:49:44;26.55;;;15.30;;
71753;SDS011;59593;51.716;7.016;2023-10-09T13:52:15;27.02;;;15.43;;
71753;SDS011;59593;51.716;7.016;2023-10-09T13:54:43;22.52;;;15.85;;
71753;SDS011;59593;51.716;7.016;2023-10-09T13:57:20;21.90;;;16.05;;
71753;SDS011;59593;51.716;7.016;2023-10-09T13:59:50;24.05;;;15.43;;
71753;SDS011;59593;51.716;7.016;2023-10-09T14:02:16;23.08;;;15.45;;
71753;SDS011;59593;51.716;7.016;2023-10-09T14:04:43;19.67;;;14.73;;
71753;SDS011;59593;51.716;7.016;2023-10-09T14:07:09;27.65;;;15.15;;
71753;SDS011;59593;51.716;7.016;2023-10-09T14:09:35;23.30;;;15.48;;
71753;SDS011;59593;51.716;7.016;2023-10-09T14:12:09;24.90;;;15.30;;
71753;SDS011;59593;51.716;7.016;2023-10-09T14:14:36;24.40;;;15.57;;
71753;SDS011;59593;51.716;7.016;2023-10-09T14:17:04;23.75;;;15.70;;
71753;SDS011;59593;51.716;7.016;2023-10-09T14:19:37;28.85;;;15.80;;
71753;SDS011;59593;51.716;7.016;2023-10-09T14:22:15;23.25;;;16.10;;
71753;SDS011;59593;51.716;7.016;2023-10-09T14:24:47;25.90;;;15.45;;
71753;SDS011;59593;51.716;7.016;2023-10-09T14:27:20;21.35;;;14.65;;
71753;SDS011;59593;51.716;7.016;2023-10-09T14:29:50;24.85;;;15.70;;
71753;SDS011;59593;51.716;7.016;2023-10-09T14:32:17;23.50;;;15.15;;
71753;SDS011;59593;51.716;7.016;2023-10-09T14:34:42;22.38;;;15.30;;
71753;SDS011;59593;51.716;7.016;2023-10-09T14:37:15;23.98;;;15.10;;
71753;SDS011;59593;51.716;7.016;2023-10-09T14:39:44;22.73;;;14.77;;
71753;SDS011;59593;51.716;7.016;2023-10-09T14:42:16;23.33;;;13.98;;
71753;SDS011;59593;51.716;7.016;2023-10-09T14:44:43;25.80;;;13.88;;
71753;SDS011;59593;51.716;7.016;2023-10-09T14:47:11;24.98;;;13.85;;
71753;SDS011;59593;51.716;7.016;2023-10-09T14:49:39;25.73;;;13.68;;
71753;SDS011;59593;51.716;7.016;2023-10-09T14:52:11;19.95;;;13.30;;
71753;SDS011;59593;51.716;7.016;2023-10-09T14:54:45;22.92;;;13.68;;
71753;SDS011;59593;51.716;7.016;2023-10-09T14:57:13;23.25;;;13.90;;
71753;SDS011;59593;51.716;7.016;2023-10-09T14:59:39;23.55;;;12.90;;
71753;SDS011;59593;51.716;7.016;2023-10-09T15:02:05;20.13;;;12.60;;
71753;SDS011;59593;51.716;7.016;2023-10-09T15:04:32;20.20;;;12.55;;
71753;SDS011;59593;51.716;7.016;2023-10-09T15:07:01;20.33;;;12.75;;
71753;SDS011;59593;51.716;7.016;2023-10-09T15:09:28;20.13;;;11.88;;
71753;SDS011;59593;51.716;7.016;2023-10-09T15:11:56;20.02;;;11.98;;
71753;SDS011;59593;51.716;7.016;2023-10-09T15:14:24;20.30;;;12.30;;
71753;SDS011;59593;51.716;7.016;2023-10-09T15:16:50;19.65;;;11.25;;
71753;SDS011;59593;51.716;7.016;2023-10-09T15:19:15;20.48;;;11.05;;
71753;SDS011;59593;51.716;7.016;2023-10-09T15:21:41;21.88;;;11.38;;
71753;SDS011;59593;51.716;7.016;2023-10-09T15:24:11;16.27;;;10.82;;
71753;SDS011;59593;51.716;7.016;2023-10-09T15:26:46;18.65;;;10.70;;
71753;SDS011;59593;51.716;7.016;2023-10-09T15:29:18;21.88;;;11.07;;
71753;SDS011;59593;51.716;7.016;2023-10-09T15:31:48;17.40;;;10.10;;
71753;SDS011;59593;51.716;7.016;2023-10-09T15:34:16;19.38;;;10.30;;
71753;SDS011;59593;51.716;7.016;2023-10-09T15:36:43;19.83;;;10.25;;
71753;SDS011;59593;51.716;7.016;2023-10-09T15:39:12;16.27;;;10.65;;
71753;SDS011;59593;51.716;7.016;2023-10-09T15:41:53;19.02;;;10.32;;
71753;SDS011;59593;51.716;7.016;2023-10-09T15:44:19;20.02;;;9.60;;